createdAt,value
2022-10-16T00:00:29.867Z,16.20
2022-10-16T00:02:58.168Z,16.20
2022-10-16T00:05:26.469Z,16.10
2022-10-16T00:07:54.769Z,16.10
2022-10-16T00:10:23.247Z,16.10
2022-10-16T00:12:51.867Z,16.00
2022-10-16T00:15:20.100Z,16.00
2022-10-16T00:17:49.768Z,16.00
2022-10-16T00:20:18.266Z,16.00
2022-10-16T00:22:46.577Z,16.00
2022-10-16T00:25:15.218Z,16.00
2022-10-16T00:27:43.617Z,16.00
2022-10-16T00:30:12.535Z,16.10
2022-10-16T00:32:40.767Z,16.10
2022-10-16T00:35:10.740Z,16.10
2022-10-16T00:37:38.996Z,16.10
2022-10-16T00:40:10.746Z,16.20
2022-10-16T00:42:39.116Z,16.20
2022-10-16T00:45:07.806Z,16.20
2022-10-16T00:47:37.387Z,16.20
2022-10-16T00:50:09.588Z,16.20
2022-10-16T00:52:39.576Z,16.30
2022-10-16T00:55:10.992Z,16.30
2022-10-16T00:57:39.706Z,16.30
2022-10-16T01:00:09.218Z,16.30
2022-10-16T01:02:37.555Z,16.30
2022-10-16T01:05:06.566Z,16.30
2022-10-16T01:07:39.887Z,16.30
2022-10-16T01:10:14.464Z,16.30
2022-10-16T01:12:46.984Z,16.30
2022-10-16T01:15:20.266Z,16.30
2022-10-16T01:17:51.666Z,16.30
2022-10-16T01:20:23.835Z,16.20
2022-10-16T01:23:04.087Z,16.20
2022-10-16T01:25:39.977Z,16.20
2022-10-16T01:28:11.827Z,16.20
2022-10-16T01:30:40.126Z,16.20
2022-10-16T01:33:11.116Z,16.20
2022-10-16T01:35:41.824Z,16.20
2022-10-16T01:38:12.456Z,16.20
2022-10-16T01:40:42.167Z,16.20
2022-10-16T01:43:14.777Z,16.20
2022-10-16T01:45:43.275Z,16.20
2022-10-16T01:48:12.903Z,16.20
2022-10-16T01:50:42.106Z,16.10
2022-10-16T01:53:12.505Z,16.10
2022-10-16T01:55:46.096Z,16.10
2022-10-16T01:58:16.466Z,16.10
2022-10-16T02:00:46.725Z,16.00
2022-10-16T02:03:16.828Z,16.00
2022-10-16T02:05:47.387Z,15.90
2022-10-16T02:08:16.006Z,15.90
2022-10-16T02:10:44.650Z,15.90
2022-10-16T02:13:15.229Z,15.90
2022-10-16T02:15:45.108Z,15.90
2022-10-16T02:18:13.866Z,15.90
2022-10-16T02:20:49.990Z,15.90
2022-10-16T02:23:21.964Z,15.90
2022-10-16T02:25:51.937Z,15.90
2022-10-16T02:28:21.384Z,15.90
2022-10-16T02:30:52.971Z,15.90
2022-10-16T02:33:22.780Z,15.90
2022-10-16T02:35:52.709Z,15.90
2022-10-16T02:38:21.808Z,15.90
2022-10-16T02:40:50.358Z,15.80
2022-10-16T02:43:18.917Z,15.80
2022-10-16T02:45:47.197Z,15.80
2022-10-16T02:48:16.924Z,15.80
2022-10-16T02:50:45.216Z,15.80
2022-10-16T02:53:13.537Z,15.80
2022-10-16T02:55:41.867Z,15.80
2022-10-16T02:58:10.561Z,15.80
2022-10-16T03:00:38.867Z,15.70
2022-10-16T03:03:07.101Z,15.70
2022-10-16T03:05:36.837Z,15.70
2022-10-16T03:08:05.287Z,15.70
2022-10-16T03:10:33.584Z,15.70
2022-10-16T03:13:01.876Z,15.60
2022-10-16T03:15:30.516Z,15.60
2022-10-16T03:17:59.716Z,15.60
2022-10-16T03:20:28.387Z,15.60
2022-10-16T03:22:58.077Z,15.60
2022-10-16T03:25:26.447Z,15.60
2022-10-16T03:27:54.768Z,15.60
2022-10-16T03:30:23.107Z,15.60
2022-10-16T03:32:55.164Z,15.50
2022-10-16T03:35:23.567Z,15.50
2022-10-16T03:37:51.810Z,15.50
2022-10-16T03:40:22.174Z,15.50
2022-10-16T03:42:50.495Z,15.60
2022-10-16T03:45:18.797Z,15.60
2022-10-16T03:47:47.096Z,15.50
2022-10-16T03:50:15.377Z,15.50
2022-10-16T03:52:43.705Z,15.50
2022-10-16T03:55:12.447Z,15.50
2022-10-16T03:57:42.126Z,15.50
2022-10-16T04:00:11.112Z,15.50
2022-10-16T04:02:39.640Z,15.50
2022-10-16T04:05:08.639Z,15.50
2022-10-16T04:07:37.109Z,15.50
2022-10-16T04:10:05.921Z,15.50
2022-10-16T04:12:34.239Z,15.50
2022-10-16T04:15:04.380Z,15.50
2022-10-16T04:17:32.669Z,15.50
2022-10-16T04:20:00.970Z,15.50
2022-10-16T04:22:29.267Z,15.40
2022-10-16T04:24:57.619Z,15.50
2022-10-16T04:27:26.063Z,15.50
2022-10-16T04:29:54.410Z,15.40
2022-10-16T04:32:24.143Z,15.40
2022-10-16T04:34:52.442Z,15.30
2022-10-16T04:37:20.740Z,15.40
2022-10-16T04:39:49.061Z,15.30
2022-10-16T04:42:17.300Z,15.30
2022-10-16T04:44:45.520Z,15.20
2022-10-16T04:47:13.850Z,15.20
2022-10-16T04:49:44.051Z,15.20
2022-10-16T04:52:12.329Z,15.20
2022-10-16T04:54:40.659Z,15.20
2022-10-16T04:57:09.010Z,15.30
2022-10-16T04:59:37.310Z,15.30
2022-10-16T05:02:05.806Z,15.20
2022-10-16T05:04:34.154Z,15.30
2022-10-16T05:07:03.850Z,15.30
2022-10-16T05:09:32.399Z,15.30
2022-10-16T05:12:00.662Z,15.30
2022-10-16T05:14:28.890Z,15.30
2022-10-16T05:16:57.229Z,15.30
2022-10-16T05:19:27.662Z,15.30
2022-10-16T05:21:56.567Z,15.30
2022-10-16T05:24:26.341Z,15.30
2022-10-16T05:26:54.605Z,15.30
2022-10-16T05:29:22.872Z,15.30
2022-10-16T05:31:52.793Z,15.30
2022-10-16T05:34:21.058Z,15.30
2022-10-16T05:36:49.411Z,15.30
2022-10-16T05:39:18.511Z,15.20
2022-10-16T05:41:48.192Z,15.20
2022-10-16T05:44:16.793Z,15.20
2022-10-16T05:46:45.462Z,15.20
2022-10-16T05:49:13.672Z,15.20
2022-10-16T05:51:42.444Z,15.20
2022-10-16T05:54:10.834Z,15.20
2022-10-16T05:56:39.023Z,15.30
2022-10-16T05:59:08.692Z,15.30
2022-10-16T06:01:37.202Z,15.30
2022-10-16T06:04:05.531Z,15.30
2022-10-16T06:06:33.801Z,15.30
2022-10-16T06:09:02.158Z,15.40
2022-10-16T06:11:31.252Z,15.40
2022-10-16T06:14:01.362Z,15.50
2022-10-16T06:16:31.251Z,15.50
2022-10-16T06:19:00.742Z,15.60
2022-10-16T06:21:29.484Z,15.60
2022-10-16T06:23:58.503Z,15.80
2022-10-16T06:26:27.571Z,15.70
2022-10-16T06:28:56.563Z,15.70
2022-10-16T06:31:28.594Z,15.70
2022-10-16T06:33:58.581Z,15.70
2022-10-16T06:36:27.083Z,15.80
2022-10-16T06:38:55.381Z,15.90
2022-10-16T06:41:24.521Z,16.00
2022-10-16T06:43:53.327Z,16.00
2022-10-16T06:46:22.705Z,16.10
2022-10-16T06:48:51.232Z,16.00
2022-10-16T06:51:21.971Z,16.10
2022-10-16T06:54:06.649Z,16.10
2022-10-16T06:56:35.786Z,16.10
2022-10-16T06:59:04.431Z,16.10
2022-10-16T07:01:33.061Z,16.10
2022-10-16T07:04:02.164Z,16.20
2022-10-16T07:06:33.653Z,16.20
2022-10-16T07:09:03.543Z,16.20
2022-10-16T07:11:31.831Z,16.20
2022-10-16T07:14:00.559Z,16.20
2022-10-16T07:16:29.531Z,16.20
2022-10-16T07:19:00.738Z,16.30
2022-10-16T07:21:30.262Z,16.30
2022-10-16T07:24:00.862Z,16.30
2022-10-16T07:26:29.560Z,16.30
2022-10-16T07:29:01.503Z,16.40
2022-10-16T07:31:31.171Z,16.40
2022-10-16T07:34:00.788Z,16.50
2022-10-16T07:36:29.504Z,16.60
2022-10-16T07:39:00.363Z,16.70
2022-10-16T07:41:29.284Z,16.70
2022-10-16T07:44:01.408Z,16.80
2022-10-16T07:46:30.423Z,16.80
2022-10-16T07:48:58.833Z,16.90
2022-10-16T07:51:28.070Z,17.00
2022-10-16T07:53:56.301Z,17.20
2022-10-16T07:56:25.969Z,17.30
2022-10-16T07:58:54.255Z,17.40
2022-10-16T08:01:22.580Z,17.50
2022-10-16T08:03:51.688Z,17.60
2022-10-16T08:06:23.435Z,17.70
2022-10-16T08:08:55.513Z,18.00
2022-10-16T08:11:24.543Z,18.20
2022-10-16T08:13:54.273Z,18.40
2022-10-16T08:16:23.282Z,18.60
2022-10-16T08:18:52.719Z,18.70
2022-10-16T08:21:22.671Z,18.90
2022-10-16T08:23:54.857Z,19.10
2022-10-16T08:26:25.433Z,19.10
2022-10-16T08:28:55.294Z,18.90
2022-10-16T08:31:23.735Z,18.80
2022-10-16T08:33:53.482Z,18.70
2022-10-16T08:36:22.027Z,18.70
2022-10-16T08:38:51.326Z,18.60
2022-10-16T08:41:25.383Z,18.60
2022-10-16T08:44:01.845Z,18.70
2022-10-16T08:46:37.951Z,18.80
2022-10-16T08:49:09.162Z,18.80
2022-10-16T08:51:41.743Z,18.90
2022-10-16T08:54:18.328Z,19.00
2022-10-16T08:56:46.577Z,19.10
2022-10-16T08:59:16.692Z,19.20
2022-10-16T09:01:46.783Z,19.20
2022-10-16T09:04:29.831Z,19.30
2022-10-16T09:07:00.298Z,19.20
2022-10-16T09:09:44.552Z,19.20
2022-10-16T09:12:14.726Z,19.20
2022-10-16T09:14:52.773Z,19.30
2022-10-16T09:17:32.435Z,19.50
2022-10-16T09:20:13.266Z,19.60
2022-10-16T09:22:42.062Z,19.70
2022-10-16T09:25:13.885Z,19.70
2022-10-16T09:27:43.260Z,19.70
2022-10-16T09:30:17.377Z,19.60
2022-10-16T09:32:46.430Z,19.50
2022-10-16T09:35:17.047Z,19.50
2022-10-16T09:37:46.758Z,19.60
2022-10-16T09:40:15.700Z,19.70
2022-10-16T09:42:44.109Z,19.90
2022-10-16T09:45:25.148Z,20.00
2022-10-16T09:47:56.956Z,20.10
2022-10-16T09:50:27.641Z,20.20
2022-10-16T09:53:10.972Z,20.10
2022-10-16T09:55:49.741Z,20.00
2022-10-16T09:58:18.128Z,20.00
2022-10-16T10:00:53.458Z,20.00
2022-10-16T10:03:36.378Z,19.90
2022-10-16T10:06:07.869Z,19.80
2022-10-16T10:08:36.218Z,19.80
2022-10-16T10:11:05.949Z,20.10
2022-10-16T10:13:34.299Z,20.40
2022-10-16T10:16:04.349Z,20.60
2022-10-16T10:18:33.167Z,20.70
2022-10-16T10:21:02.222Z,20.70
2022-10-16T10:23:31.509Z,20.80
2022-10-16T10:26:05.299Z,20.60
2022-10-16T10:28:41.827Z,20.40
2022-10-16T10:31:16.220Z,20.30
2022-10-16T10:33:47.608Z,20.20
2022-10-16T10:36:25.279Z,20.30
2022-10-16T10:38:57.688Z,20.30
2022-10-16T10:41:36.648Z,20.40
2022-10-16T10:44:08.840Z,20.30
2022-10-16T10:46:43.370Z,20.20
2022-10-16T10:49:31.760Z,20.20
2022-10-16T10:52:04.417Z,20.20
2022-10-16T10:54:37.489Z,20.10
2022-10-16T10:57:09.736Z,20.10
2022-10-16T10:59:46.446Z,20.20
2022-10-16T11:02:20.577Z,20.20
2022-10-16T11:04:59.526Z,20.20
2022-10-16T11:07:30.068Z,20.20
2022-10-16T11:10:01.243Z,20.20
2022-10-16T11:12:32.147Z,20.30
2022-10-16T11:15:03.382Z,20.30
2022-10-16T11:17:36.795Z,20.30
2022-10-16T11:20:07.673Z,20.30
2022-10-16T11:22:38.256Z,20.30
2022-10-16T11:25:14.145Z,20.30
2022-10-16T11:27:45.544Z,20.40
2022-10-16T11:30:16.453Z,20.40
2022-10-16T11:32:51.482Z,20.40
2022-10-16T11:35:22.706Z,20.40
2022-10-16T11:37:53.076Z,20.40
2022-10-16T11:40:24.312Z,20.50
2022-10-16T11:42:56.729Z,20.60
2022-10-16T11:45:28.821Z,20.60
2022-10-16T11:48:01.347Z,20.60
2022-10-16T11:50:33.422Z,20.60
2022-10-16T11:53:05.905Z,20.60
2022-10-16T11:55:36.661Z,20.60
2022-10-16T11:58:08.442Z,20.70
2022-10-16T12:00:40.095Z,20.70
2022-10-16T12:03:14.038Z,20.70
2022-10-16T12:05:52.383Z,20.70
2022-10-16T12:08:23.586Z,20.70
2022-10-16T12:10:51.894Z,20.60
2022-10-16T12:13:33.558Z,20.60
2022-10-16T12:16:08.856Z,20.70
2022-10-16T12:18:38.626Z,20.70
2022-10-16T12:21:08.269Z,20.70
2022-10-16T12:23:39.766Z,20.60
2022-10-16T12:26:09.090Z,20.50
2022-10-16T12:28:38.928Z,20.50
2022-10-16T12:31:09.767Z,20.40
2022-10-16T12:33:40.479Z,20.30
2022-10-16T12:36:13.570Z,20.20
2022-10-16T12:38:48.801Z,20.20
2022-10-16T12:41:26.800Z,20.20
2022-10-16T12:43:55.079Z,20.30
2022-10-16T12:46:24.720Z,20.30
2022-10-16T12:49:09.660Z,20.30
2022-10-16T12:51:38.675Z,20.30
2022-10-16T12:54:13.496Z,20.20
2022-10-16T12:56:49.110Z,20.10
2022-10-16T12:59:22.234Z,20.10
2022-10-16T13:01:58.344Z,20.10
2022-10-16T13:04:46.386Z,20.00
2022-10-16T13:07:21.664Z,20.00
2022-10-16T13:09:56.698Z,20.00
2022-10-16T13:12:29.679Z,20.10
2022-10-16T13:15:04.271Z,20.10
2022-10-16T13:17:37.508Z,20.10
2022-10-16T13:20:13.736Z,20.10
2022-10-16T13:22:47.365Z,20.00
2022-10-16T13:25:22.676Z,20.00
2022-10-16T13:27:54.639Z,20.00
2022-10-16T13:30:28.216Z,20.00
2022-10-16T13:33:02.549Z,20.00
2022-10-16T13:35:33.318Z,20.00
2022-10-16T13:38:18.048Z,20.00
2022-10-16T13:40:53.498Z,20.10
2022-10-16T13:43:23.238Z,20.20
2022-10-16T13:45:58.648Z,20.30
2022-10-16T13:48:27.098Z,20.40
2022-10-16T13:51:08.504Z,20.40
2022-10-16T13:53:37.496Z,20.30
2022-10-16T13:56:08.777Z,20.10
2022-10-16T13:58:37.093Z,20.10
2022-10-16T14:01:06.553Z,20.00
2022-10-16T14:03:36.720Z,19.90
2022-10-16T14:06:10.091Z,19.80
2022-10-16T14:08:38.428Z,19.80
2022-10-16T14:11:06.678Z,19.80
2022-10-16T14:13:36.478Z,19.70
2022-10-16T14:16:08.179Z,19.70
2022-10-16T14:18:37.669Z,19.70
2022-10-16T14:21:08.394Z,19.70
2022-10-16T14:23:38.536Z,19.70
2022-10-16T14:26:24.737Z,19.70
2022-10-16T14:29:05.197Z,19.70
2022-10-16T14:31:37.560Z,19.70
2022-10-16T14:34:06.168Z,19.80
2022-10-16T14:36:36.257Z,19.80
2022-10-16T14:39:07.018Z,19.80
2022-10-16T14:41:43.087Z,19.80
2022-10-16T14:44:13.359Z,19.80
2022-10-16T14:46:43.140Z,19.80
2022-10-16T14:49:17.069Z,19.80
2022-10-16T14:51:49.494Z,19.70
2022-10-16T14:57:48.048Z,19.70
2022-10-16T15:00:35.269Z,19.70
2022-10-16T15:03:03.889Z,19.60
2022-10-16T15:05:33.805Z,19.60
2022-10-16T15:08:05.784Z,19.60
2022-10-16T15:10:34.859Z,19.60
2022-10-16T15:13:03.589Z,19.60
2022-10-16T15:15:36.699Z,19.50
2022-10-16T15:18:05.663Z,19.50
2022-10-16T15:20:35.549Z,19.50
2022-10-16T15:23:08.259Z,19.40
2022-10-16T15:25:38.306Z,19.40
2022-10-16T15:28:08.668Z,19.30
2022-10-16T15:30:46.026Z,19.30
2022-10-16T15:33:22.629Z,19.20
2022-10-16T15:35:54.798Z,19.20
2022-10-16T15:38:28.917Z,19.10
2022-10-16T15:41:07.808Z,19.10
2022-10-16T15:43:38.622Z,19.10
2022-10-16T15:46:12.961Z,19.10
2022-10-16T15:48:44.562Z,19.10
2022-10-16T15:51:16.579Z,19.10
2022-10-16T15:53:48.577Z,19.10
2022-10-16T15:56:17.628Z,19.10
2022-10-16T15:58:55.649Z,19.10
2022-10-16T16:01:24.127Z,19.10
2022-10-16T16:03:54.899Z,19.10
2022-10-16T16:06:24.869Z,19.20
2022-10-16T16:08:54.725Z,19.10
2022-10-16T16:11:24.428Z,19.10
2022-10-16T16:13:53.055Z,19.10
2022-10-16T16:16:30.298Z,19.10
2022-10-16T16:19:07.738Z,19.00
2022-10-16T16:21:40.140Z,19.00
2022-10-16T16:24:18.181Z,18.90
2022-10-16T16:26:47.064Z,18.90
2022-10-16T16:29:17.709Z,18.90
2022-10-16T16:31:48.613Z,18.90
2022-10-16T16:34:17.779Z,18.80
2022-10-16T16:36:46.902Z,18.80
2022-10-16T16:39:19.444Z,18.70
2022-10-16T16:41:51.178Z,18.70
2022-10-16T16:44:22.873Z,18.70
2022-10-16T16:46:54.463Z,18.70
2022-10-16T16:49:31.606Z,18.70
2022-10-16T16:52:00.949Z,18.60
2022-10-16T16:57:07.145Z,18.50
2022-10-16T16:59:36.487Z,18.40
2022-10-16T17:02:10.809Z,18.40
2022-10-16T17:04:40.058Z,18.40
2022-10-16T17:07:10.873Z,18.40
2022-10-16T17:09:44.198Z,18.30
2022-10-16T17:12:13.478Z,18.30
2022-10-16T17:14:53.467Z,18.30
2022-10-16T17:17:26.019Z,18.30
2022-10-16T17:19:57.723Z,18.40
2022-10-16T17:22:48.087Z,18.30
2022-10-16T17:29:16.924Z,18.30
2022-10-16T17:31:51.968Z,18.30
2022-10-16T17:34:21.377Z,18.30
2022-10-16T17:36:53.814Z,18.30
2022-10-16T17:39:23.834Z,18.30
2022-10-16T17:41:53.709Z,18.30
2022-10-16T17:44:24.489Z,18.20
2022-10-16T17:46:56.296Z,18.20
2022-10-16T17:49:25.913Z,18.20
2022-10-16T17:52:04.606Z,18.20
2022-10-16T17:54:35.124Z,18.30
2022-10-16T17:57:39.788Z,18.20
2022-10-16T18:00:11.731Z,18.20
2022-10-16T18:02:43.538Z,18.10
2022-10-16T18:05:13.259Z,18.10
2022-10-16T18:07:48.280Z,18.10
2022-10-16T18:10:27.636Z,18.00
2022-10-16T18:12:57.678Z,18.00
2022-10-16T18:15:29.638Z,17.90
2022-10-16T18:18:02.433Z,18.00
2022-10-16T18:20:37.867Z,17.90
2022-10-16T18:23:47.693Z,17.90
2022-10-16T18:26:28.325Z,17.90
2022-10-16T18:29:03.667Z,18.00
2022-10-16T18:31:39.140Z,17.90
2022-10-16T18:34:17.825Z,17.80
2022-10-16T18:37:04.761Z,17.90
2022-10-16T18:39:34.580Z,17.90
2022-10-16T18:42:22.005Z,17.90
2022-10-16T18:44:53.078Z,17.90
2022-10-16T18:47:41.508Z,17.90
2022-10-16T18:53:21.991Z,17.80
2022-10-16T18:55:54.429Z,17.80
2022-10-16T18:58:24.319Z,17.80
2022-10-16T19:00:55.259Z,17.70
2022-10-16T19:03:24.030Z,17.80
2022-10-16T19:05:53.829Z,17.70
2022-10-16T19:08:28.853Z,17.70
2022-10-16T19:10:59.615Z,17.70
2022-10-16T19:13:31.320Z,17.70
2022-10-16T19:16:20.962Z,17.70
2022-10-16T19:18:50.506Z,17.70
2022-10-16T19:21:26.211Z,17.80
2022-10-16T19:24:00.777Z,17.70
2022-10-16T19:26:39.621Z,17.70
2022-10-16T19:29:19.569Z,17.70
2022-10-16T19:31:53.069Z,17.60
2022-10-16T19:34:32.749Z,17.60
2022-10-16T19:37:03.305Z,17.60
2022-10-16T19:39:35.449Z,17.60
2022-10-16T19:42:06.369Z,17.60
2022-10-16T19:44:36.353Z,17.50
2022-10-16T19:47:11.930Z,17.50
2022-10-16T19:49:45.451Z,17.50
2022-10-16T19:52:28.053Z,17.50
2022-10-16T19:54:59.960Z,17.50
2022-10-16T20:00:14.699Z,17.50
2022-10-16T20:02:45.071Z,17.60
2022-10-16T20:05:18.058Z,17.40
2022-10-16T20:07:50.381Z,17.40
2022-10-16T20:10:26.006Z,17.40
2022-10-16T20:12:57.967Z,17.40
2022-10-16T20:15:26.450Z,17.40
2022-10-16T20:18:00.171Z,17.50
2022-10-16T20:20:32.481Z,17.50
2022-10-16T20:23:02.258Z,17.50
2022-10-16T20:25:39.140Z,17.50
2022-10-16T20:28:09.564Z,17.50
2022-10-16T20:30:42.067Z,17.40
2022-10-16T20:33:15.887Z,17.30
2022-10-16T20:35:52.798Z,17.30
2022-10-16T20:38:27.295Z,17.30
2022-10-16T20:41:08.549Z,17.20
2022-10-16T20:43:44.437Z,17.20
2022-10-16T20:46:15.113Z,17.20
2022-10-16T20:48:52.098Z,17.20
2022-10-16T20:51:31.321Z,17.10
2022-10-16T20:54:03.717Z,17.10
2022-10-16T20:56:41.130Z,17.00
2022-10-16T20:59:11.179Z,17.00
2022-10-16T21:01:40.663Z,16.90
2022-10-16T21:04:09.961Z,17.00
2022-10-16T21:06:40.984Z,16.80
2022-10-16T21:09:10.273Z,16.90
2022-10-16T21:11:40.228Z,16.90
2022-10-16T21:14:11.299Z,16.90
2022-10-16T21:16:39.929Z,16.90
2022-10-16T21:19:08.178Z,17.00
2022-10-16T21:21:40.348Z,17.00
2022-10-16T21:24:12.303Z,17.00
2022-10-16T21:26:47.747Z,17.00
2022-10-16T21:29:16.086Z,17.00
2022-10-16T21:31:47.944Z,16.90
2022-10-16T21:34:16.728Z,17.00
2022-10-16T21:36:45.089Z,17.00
2022-10-16T21:39:14.973Z,17.00
2022-10-16T21:41:45.448Z,17.00
2022-10-16T21:44:14.318Z,17.00
2022-10-16T21:46:43.938Z,17.00
2022-10-16T21:49:14.262Z,17.00
2022-10-16T21:51:43.657Z,16.90
2022-10-16T21:54:13.166Z,16.90
2022-10-16T21:56:41.439Z,16.90
2022-10-16T21:59:13.000Z,16.90
2022-10-16T22:01:41.944Z,17.00
2022-10-16T22:04:11.010Z,17.00
2022-10-16T22:06:40.067Z,16.90
2022-10-16T22:09:08.697Z,17.00
2022-10-16T22:11:38.339Z,16.90
2022-10-16T22:14:07.210Z,16.90
2022-10-16T22:16:37.448Z,16.90
2022-10-16T22:19:07.540Z,16.90
2022-10-16T22:21:36.178Z,16.90
2022-10-16T22:24:04.613Z,16.90
2022-10-16T22:26:32.928Z,16.90
2022-10-16T22:29:01.765Z,16.90
2022-10-16T22:31:30.088Z,16.80
2022-10-16T22:34:01.424Z,16.80
2022-10-16T22:36:30.037Z,16.80
2022-10-16T22:38:58.688Z,16.90
2022-10-16T22:41:30.139Z,16.80
2022-10-16T22:44:00.369Z,16.80
2022-10-16T22:46:29.393Z,16.80
2022-10-16T22:48:58.398Z,16.80
2022-10-16T22:51:28.705Z,16.80
2022-10-16T22:53:58.272Z,16.70
2022-10-16T22:56:28.987Z,16.70
2022-10-16T22:58:57.310Z,16.70
2022-10-16T23:01:29.958Z,16.60
2022-10-16T23:03:58.721Z,16.60
2022-10-16T23:06:28.659Z,16.60
2022-10-16T23:08:59.815Z,16.70
2022-10-16T23:11:28.791Z,16.70
2022-10-16T23:13:57.563Z,16.60
2022-10-16T23:16:26.272Z,16.60
2022-10-16T23:18:55.883Z,16.60
2022-10-16T23:21:25.096Z,16.50
2022-10-16T23:23:55.745Z,16.50
2022-10-16T23:26:25.508Z,16.40
2022-10-16T23:28:54.393Z,16.40
2022-10-16T23:31:22.747Z,16.40
2022-10-16T23:33:53.608Z,16.30
2022-10-16T23:36:22.397Z,16.30
2022-10-16T23:38:50.961Z,16.30
2022-10-16T23:41:21.374Z,16.30
2022-10-16T23:43:51.463Z,16.30
2022-10-16T23:46:20.062Z,16.30
2022-10-16T23:48:48.385Z,16.30
2022-10-16T23:51:16.718Z,16.30
2022-10-16T23:53:45.283Z,16.20
2022-10-16T23:56:13.955Z,16.20
2022-10-16T23:58:44.016Z,16.20
